Time;durP1;ratioP1;P1;durP2;ratioP2;P2;SDS_P1;SDS_P2;PMS_P1;PMS_P2;Temp;Humidity;BMP_temperature;BMP_pressure;BME280_temperature;BME280_humidity;BME280_pressure;Samples;Min_cycle;Max_cycle;Signal;HPM_P1;HPM_P2
2023/06/19 00:00:31;;;;;;;0.70;0.70;;;24.30;85.50;;;;;;6271777;22;20674;-78
2023/06/19 00:02:59;;;;;;;1.27;0.40;;;24.30;85.70;;;;;;6273832;22;20170;-79
2023/06/19 00:05:27;;;;;;;1.17;0.82;;;24.30;85.70;;;;;;6271258;22;20281;-79
2023/06/19 00:07:56;;;;;;;0.93;0.70;;;24.30;85.60;;;;;;6274205;22;20189;-80
2023/06/19 00:10:25;;;;;;;1.95;1.25;;;24.20;85.60;;;;;;6272974;22;20197;-79
2023/06/19 00:12:54;;;;;;;2.05;0.77;;;24.30;86.00;;;;;;6274956;22;20194;-81
2023/06/19 00:15:22;;;;;;;0.75;0.75;;;24.30;85.80;;;;;;6271776;22;20607;-79
2023/06/19 00:17:51;;;;;;;0.75;0.32;;;24.20;85.70;;;;;;6272597;22;20639;-80
2023/06/19 00:20:19;;;;;;;0.43;0.43;;;24.30;85.80;;;;;;6272646;22;20627;-79
2023/06/19 00:22:51;;;;;;;0.20;0.20;;;24.30;85.70;;;;;;6273817;22;20201;-80
2023/06/19 00:25:20;;;;;;;0.38;0.38;;;24.30;85.60;;;;;;6270978;22;20158;-79
2023/06/19 00:27:50;;;;;;;0.40;0.40;;;24.30;85.60;;;;;;6273374;22;20174;-80
2023/06/19 00:30:18;;;;;;;0.20;0.20;;;24.20;85.40;;;;;;6271609;22;20194;-78
2023/06/19 00:32:47;;;;;;;0.73;0.65;;;24.30;85.40;;;;;;6273521;22;20197;-80
2023/06/19 00:35:16;;;;;;;3.92;1.00;;;24.30;85.20;;;;;;6271989;22;20553;-79
2023/06/19 00:37:45;;;;;;;0.55;0.43;;;24.30;85.10;;;;;;6274393;22;20172;-80
2023/06/19 00:40:26;;;;;;;0.50;0.50;;;24.30;85.00;;;;;;6270950;22;20208;-79
2023/06/19 00:42:56;;;;;;;0.35;0.35;;;24.30;85.00;;;;;;6274537;22;20190;-80
2023/06/19 00:45:25;;;;;;;1.30;0.43;;;24.30;84.80;;;;;;6247529;22;20193;-80
2023/06/19 00:47:54;;;;;;;0.38;0.38;;;24.30;84.70;;;;;;6271737;22;20174;-79
2023/06/19 00:50:23;;;;;;;0.20;0.20;;;24.30;84.80;;;;;;6272075;22;20572;-79
2023/06/19 00:52:53;;;;;;;1.27;0.45;;;24.30;84.70;;;;;;6272733;22;20176;-80
2023/06/19 00:55:23;;;;;;;0.50;0.40;;;24.30;85.00;;;;;;6271937;22;20244;-79
2023/06/19 00:57:53;;;;;;;2.97;1.05;;;24.20;84.90;;;;;;6247065;22;20169;-79
2023/06/19 01:00:23;;;;;;;0.60;0.40;;;24.20;85.00;;;;;;6272480;22;20219;-79
2023/06/19 01:02:52;;;;;;;2.75;1.38;;;24.20;84.90;;;;;;6272280;22;20158;-79
2023/06/19 01:05:21;;;;;;;0.20;0.20;;;24.20;85.10;;;;;;6273384;22;20201;-79
2023/06/19 01:07:58;;;;;;;0.77;0.35;;;24.20;85.10;;;;;;6272121;22;20583;-79
2023/06/19 01:10:30;;;;;;;0.52;0.38;;;24.20;85.00;;;;;;6272537;22;20441;-79
2023/06/19 01:13:06;;;;;;;0.22;0.22;;;24.20;85.00;;;;;;6247251;22;20657;-79
2023/06/19 01:15:37;;;;;;;0.55;0.40;;;24.20;85.00;;;;;;6274501;22;20154;-79
2023/06/19 01:18:06;;;;;;;0.30;0.30;;;24.20;85.00;;;;;;6271476;22;20667;-79
2023/06/19 01:20:35;;;;;;;0.30;0.28;;;24.20;85.00;;;;;;6273305;22;20170;-79
2023/06/19 01:23:10;;;;;;;0.70;0.60;;;24.20;84.90;;;;;;6272782;22;20634;-80
2023/06/19 01:25:39;;;;;;;0.20;0.20;;;24.20;84.90;;;;;;6272548;22;20233;-80
2023/06/19 01:28:11;;;;;;;0.60;0.52;;;24.20;84.90;;;;;;6273100;22;20702;-80
2023/06/19 01:30:43;;;;;;;0.32;0.32;;;24.20;84.90;;;;;;6270934;22;20186;-80
2023/06/19 01:33:17;;;;;;;0.57;0.57;;;24.20;84.90;;;;;;6272016;22;20208;-80
2023/06/19 01:35:48;;;;;;;1.00;0.68;;;24.20;84.80;;;;;;6273586;22;20161;-80
2023/06/19 01:38:20;;;;;;;4.15;0.90;;;24.20;84.80;;;;;;6271794;22;20169;-80
2023/06/19 01:40:50;;;;;;;0.20;0.20;;;24.20;84.70;;;;;;6271811;22;20200;-80
2023/06/19 01:43:20;;;;;;;0.20;0.20;;;24.30;84.70;;;;;;6273392;22;20626;-80
2023/06/19 01:45:49;;;;;;;0.30;0.30;;;24.30;84.70;;;;;;6272874;22;20169;-80
2023/06/19 01:48:17;;;;;;;0.20;0.20;;;24.30;84.60;;;;;;6272293;22;20170;-79
2023/06/19 01:50:47;;;;;;;0.20;0.20;;;24.30;84.50;;;;;;6272046;22;20200;-80
2023/06/19 01:53:15;;;;;;;0.80;0.77;;;24.30;84.50;;;;;;6271615;22;20170;-78
2023/06/19 01:55:45;;;;;;;0.47;0.40;;;24.30;84.50;;;;;;6272186;22;20291;-80
2023/06/19 01:58:14;;;;;;;0.30;0.30;;;24.30;84.40;;;;;;6271689;22;20224;-78
2023/06/19 02:00:43;;;;;;;0.75;0.68;;;24.30;84.40;;;;;;6272337;22;20555;-78
2023/06/19 02:03:11;;;;;;;1.27;1.13;;;24.30;84.20;;;;;;6273173;22;20189;-80
2023/06/19 02:05:40;;;;;;;0.25;0.25;;;24.30;84.20;;;;;;6272625;22;20248;-80
2023/06/19 02:08:08;;;;;;;0.20;0.20;;;24.30;84.20;;;;;;6271248;22;20173;-79
2023/06/19 02:10:37;;;;;;;0.32;0.32;;;24.30;84.10;;;;;;6271788;22;20193;-78
2023/06/19 02:13:07;;;;;;;0.17;0.17;;;24.30;84.00;;;;;;6272335;22;20165;-80
2023/06/19 02:15:35;;;;;;;0.30;0.30;;;24.40;84.00;;;;;;6271617;22;20416;-79
2023/06/19 02:18:04;;;;;;;0.82;0.40;;;24.40;83.90;;;;;;6272334;22;20166;-79
2023/06/19 02:20:34;;;;;;;0.22;0.22;;;24.40;84.00;;;;;;6273171;22;20467;-79
2023/06/19 02:23:02;;;;;;;0.70;0.70;;;24.40;83.90;;;;;;6271443;22;20178;-79
2023/06/19 02:25:31;;;;;;;0.30;0.30;;;24.40;83.80;;;;;;6273386;22;20216;-79
2023/06/19 02:28:00;;;;;;;0.60;0.60;;;24.40;83.80;;;;;;6246279;22;20634;-79
2023/06/19 02:30:30;;;;;;;0.60;0.60;;;24.40;83.70;;;;;;6272576;22;20190;-78
2023/06/19 02:32:58;;;;;;;0.28;0.25;;;24.30;83.60;;;;;;6272212;22;20239;-79
2023/06/19 02:35:27;;;;;;;0.47;0.47;;;24.30;84.20;;;;;;6271339;22;20478;-79
2023/06/19 02:37:56;;;;;;;0.30;0.30;;;24.30;83.30;;;;;;6272317;22;20169;-79
2023/06/19 02:40:24;;;;;;;0.20;0.20;;;24.30;83.20;;;;;;6272162;22;20208;-78
2023/06/19 02:42:53;;;;;;;0.60;0.35;;;24.30;83.10;;;;;;6272447;22;20158;-79
2023/06/19 02:45:22;;;;;;;0.30;0.30;;;24.30;83.00;;;;;;6271020;22;20510;-79
2023/06/19 02:47:53;;;;;;;0.25;0.25;;;24.30;83.60;;;;;;6271212;22;20245;-79
2023/06/19 02:50:22;;;;;;;0.50;0.30;;;24.30;82.60;;;;;;6271709;22;20678;-79
2023/06/19 02:52:51;;;;;;;0.25;0.25;;;24.30;82.60;;;;;;6244268;22;20878;-79
2023/06/19 02:55:19;;;;;;;0.75;0.47;;;24.30;82.30;;;;;;6273000;22;20241;-79
2023/06/19 02:57:47;;;;;;;0.73;0.70;;;24.30;81.90;;;;;;6273696;22;20185;-80
2023/06/19 03:00:17;;;;;;;0.98;0.82;;;24.30;81.30;;;;;;6272949;22;20613;-78
2023/06/19 03:02:48;;;;;;;0.68;0.68;;;24.30;81.10;;;;;;6272639;22;20243;-78
2023/06/19 03:05:18;;;;;;;0.25;0.25;;;24.20;80.80;;;;;;6272313;22;20158;-79
2023/06/19 03:07:46;;;;;;;0.20;0.20;;;24.20;80.70;;;;;;6273418;22;20556;-80
2023/06/19 03:10:15;;;;;;;0.30;0.30;;;24.20;80.70;;;;;;6273481;22;20599;-78
2023/06/19 03:12:43;;;;;;;0.55;0.55;;;24.20;80.80;;;;;;6274626;22;20173;-79
2023/06/19 03:15:12;;;;;;;0.20;0.20;;;24.20;80.70;;;;;;6273555;22;20252;-79
2023/06/19 03:17:40;;;;;;;0.30;0.30;;;24.20;80.50;;;;;;6246344;22;20169;-79
2023/06/19 03:20:11;;;;;;;0.40;0.40;;;24.20;80.50;;;;;;6272957;22;20174;-79
2023/06/19 03:22:42;;;;;;;0.20;0.20;;;24.20;80.50;;;;;;6274887;22;20166;-80
2023/06/19 03:25:11;;;;;;;0.20;0.20;;;24.20;80.50;;;;;;6273171;22;20154;-79
2023/06/19 03:27:40;;;;;;;0.35;0.35;;;24.10;80.30;;;;;;6248291;22;20620;-80
2023/06/19 03:30:12;;;;;;;0.40;0.40;;;24.20;80.00;;;;;;6273658;22;20170;-79
2023/06/19 03:32:41;;;;;;;1.65;0.73;;;24.10;80.00;;;;;;6273983;22;20714;-80
2023/06/19 03:35:10;;;;;;;0.20;0.20;;;24.10;80.00;;;;;;6273342;22;20170;-78
2023/06/19 03:37:39;;;;;;;0.20;0.20;;;24.10;79.90;;;;;;6272513;22;20181;-79
2023/06/19 03:40:13;;;;;;;0.95;0.45;;;24.10;79.90;;;;;;6272948;22;20203;-80
2023/06/19 03:42:42;;;;;;;0.30;0.30;;;24.20;79.90;;;;;;6244949;23;20158;-80
2023/06/19 03:45:11;;;;;;;0.30;0.30;;;24.10;79.40;;;;;;6242254;23;20175;-78
2023/06/19 03:47:40;;;;;;;0.30;0.30;;;24.10;79.40;;;;;;6243431;23;20487;-81
2023/06/19 03:50:09;;;;;;;0.65;0.63;;;24.10;79.40;;;;;;6240910;23;20175;-79
2023/06/19 03:52:57;;;;;;;1.75;0.85;;;24.20;79.50;;;;;;6243996;23;20162;-81
2023/06/19 03:55:28;;;;;;;0.38;0.28;;;24.20;79.60;;;;;;6215240;23;20264;-79
2023/06/19 03:57:56;;;;;;;0.35;0.35;;;24.10;79.50;;;;;;6242029;23;20531;-81
2023/06/19 04:00:25;;;;;;;0.20;0.20;;;24.10;79.60;;;;;;6241712;23;20162;-79
2023/06/19 04:02:53;;;;;;;0.52;0.52;;;24.10;79.60;;;;;;6243835;23;20511;-80
2023/06/19 04:05:22;;;;;;;0.63;0.57;;;24.10;79.60;;;;;;6242283;23;20189;-79
2023/06/19 04:07:50;;;;;;;0.30;0.30;;;24.20;79.70;;;;;;6242430;23;20623;-80
2023/06/19 04:10:19;;;;;;;0.47;0.47;;;24.20;79.70;;;;;;6241981;23;20177;-80
2023/06/19 04:12:49;;;;;;;0.85;0.40;;;24.20;79.70;;;;;;6242977;23;20581;-81
2023/06/19 04:15:17;;;;;;;0.45;0.40;;;24.20;79.60;;;;;;6242662;23;20266;-79
2023/06/19 04:17:45;;;;;;;0.20;0.20;;;24.20;79.60;;;;;;6243288;23;20171;-81
2023/06/19 04:20:14;;;;;;;0.30;0.30;;;24.30;79.50;;;;;;6240990;23;20405;-79
2023/06/19 04:22:42;;;;;;;0.35;0.35;;;24.30;79.80;;;;;;6243471;23;20171;-82
2023/06/19 04:25:11;;;;;;;0.60;0.60;;;24.30;79.50;;;;;;6239321;23;20174;-79
2023/06/19 04:27:40;;;;;;;0.50;0.35;;;24.30;79.40;;;;;;6241105;23;20200;-80
2023/06/19 04:30:10;;;;;;;0.35;0.30;;;24.30;79.10;;;;;;6238129;23;20172;-78
2023/06/19 04:32:40;;;;;;;0.35;0.30;;;24.30;78.90;;;;;;6242790;23;20197;-79
2023/06/19 04:35:10;;;;;;;0.63;0.63;;;24.40;78.90;;;;;;6241173;23;20543;-78
2023/06/19 04:37:38;;;;;;;0.32;0.32;;;24.40;78.80;;;;;;6241072;23;20170;-78
2023/06/19 04:40:08;;;;;;;0.20;0.20;;;24.40;78.70;;;;;;6240790;23;20167;-79
2023/06/19 04:42:38;;;;;;;0.28;0.28;;;24.40;78.80;;;;;;6242749;23;20171;-78
2023/06/19 04:45:09;;;;;;;0.35;0.35;;;24.40;78.90;;;;;;6241665;23;20253;-79
2023/06/19 04:47:39;;;;;;;0.30;0.30;;;24.40;79.00;;;;;;6241825;23;20524;-79
2023/06/19 04:50:20;;;;;;;0.30;0.30;;;24.40;79.10;;;;;;6241157;23;20237;-79
2023/06/19 04:52:50;;;;;;;0.65;0.65;;;24.40;79.20;;;;;;6239330;23;20202;-80
2023/06/19 04:55:20;;;;;;;0.32;0.20;;;24.40;79.20;;;;;;6242230;23;20170;-80
2023/06/19 04:57:48;;;;;;;0.20;0.20;;;24.40;79.50;;;;;;6241455;23;20224;-80
2023/06/19 05:00:21;;;;;;;0.40;0.40;;;24.50;79.50;;;;;;6241988;23;20175;-79
2023/06/19 05:02:50;;;;;;;0.30;0.30;;;24.50;79.70;;;;;;6243043;23;20185;-80
2023/06/19 05:05:19;;;;;;;0.25;0.25;;;24.50;80.10;;;;;;6241598;23;20167;-79
2023/06/19 05:07:51;;;;;;;0.43;0.30;;;24.50;80.10;;;;;;6243389;23;20155;-80
2023/06/19 05:10:20;;;;;;;0.60;0.60;;;24.50;80.20;;;;;;6238758;23;20517;-80
2023/06/19 05:12:48;;;;;;;0.75;0.50;;;24.50;80.50;;;;;;6239766;23;20269;-81
2023/06/19 05:15:18;;;;;;;0.57;0.57;;;24.50;80.70;;;;;;6241031;23;20171;-79
2023/06/19 05:17:47;;;;;;;0.28;0.20;;;24.60;80.70;;;;;;6239972;23;20218;-80
2023/06/19 05:20:15;;;;;;;0.47;0.32;;;24.60;80.80;;;;;;6241699;23;20167;-79
2023/06/19 05:22:44;;;;;;;0.40;0.38;;;24.60;80.80;;;;;;6243128;23;20173;-81
2023/06/19 05:25:12;;;;;;;0.30;0.30;;;24.70;80.90;;;;;;6241727;23;20688;-79
2023/06/19 05:27:40;;;;;;;0.50;0.50;;;24.80;80.90;;;;;;6240988;23;20185;-80
2023/06/19 05:30:10;;;;;;;0.40;0.40;;;24.90;81.00;;;;;;6236709;23;20174;-79
2023/06/19 05:32:40;;;;;;;0.30;0.30;;;24.90;81.00;;;;;;6237798;23;20673;-79
2023/06/19 05:35:09;;;;;;;0.40;0.40;;;25.00;80.90;;;;;;6238500;23;20229;-79
2023/06/19 05:37:38;;;;;;;0.50;0.50;;;25.20;81.10;;;;;;6240585;23;20161;-80
2023/06/19 05:40:08;;;;;;;0.28;0.28;;;25.20;81.10;;;;;;6239867;23;20181;-80
2023/06/19 05:42:37;;;;;;;0.60;0.50;;;25.30;81.00;;;;;;6241360;23;20526;-79
2023/06/19 05:45:06;;;;;;;0.40;0.40;;;25.40;81.00;;;;;;6243466;23;20154;-79
2023/06/19 05:47:34;;;;;;;0.40;0.40;;;25.40;80.60;;;;;;6240135;23;20171;-80
2023/06/19 05:50:05;;;;;;;0.10;0.10;;;25.50;80.30;;;;;;6243301;23;20177;-80
2023/06/19 05:52:33;;;;;;;0.68;0.68;;;25.60;80.00;;;;;;6242387;23;20225;-80
2023/06/19 05:55:02;;;;;;;0.57;0.57;;;25.60;79.40;;;;;;6242437;23;20508;-80
2023/06/19 05:57:30;;;;;;;0.20;0.20;;;25.60;78.80;;;;;;6242066;23;20245;-80
2023/06/19 05:59:59;;;;;;;0.45;0.43;;;25.70;78.60;;;;;;6243081;23;20177;-80
2023/06/19 06:02:28;;;;;;;1.55;0.80;;;25.80;78.60;;;;;;6240853;23;20170;-79
2023/06/19 06:04:59;;;;;;;0.40;0.40;;;25.80;77.30;;;;;;6239182;23;20599;-80
2023/06/19 06:07:30;;;;;;;0.20;0.20;;;25.90;77.30;;;;;;6239902;23;20182;-78
2023/06/19 06:09:58;;;;;;;0.20;0.20;;;25.90;76.40;;;;;;6242028;23;20193;-80
2023/06/19 06:12:27;;;;;;;0.50;0.30;;;25.90;75.70;;;;;;6241656;23;20783;-80
2023/06/19 06:14:55;;;;;;;0.35;0.35;;;25.90;76.00;;;;;;6240301;23;20174;-80
2023/06/19 06:17:23;;;;;;;0.20;0.20;;;25.90;76.40;;;;;;6240258;23;20190;-81
2023/06/19 06:19:52;;;;;;;0.40;0.40;;;26.00;76.70;;;;;;6243217;23;20174;-80
2023/06/19 06:22:20;;;;;;;0.45;0.45;;;26.10;76.80;;;;;;6242155;23;20170;-81
2023/06/19 06:24:50;;;;;;;0.20;0.20;;;26.10;76.70;;;;;;6241105;23;20171;-78
2023/06/19 06:27:18;;;;;;;0.38;0.38;;;26.20;76.50;;;;;;6241643;23;20505;-80
2023/06/19 06:29:46;;;;;;;0.60;0.60;;;26.20;76.30;;;;;;6242950;23;20194;-80
2023/06/19 06:32:15;;;;;;;0.17;0.17;;;26.30;76.10;;;;;;6242529;23;20181;-80
2023/06/19 06:34:43;;;;;;;0.10;0.10;;;26.30;75.90;;;;;;6243293;23;20167;-79
2023/06/19 06:37:11;;;;;;;0.20;0.20;;;26.30;75.50;;;;;;6244469;23;20171;-80
2023/06/19 06:39:40;;;;;;;0.20;0.20;;;26.30;75.20;;;;;;6244712;23;20167;-80
2023/06/19 06:42:09;;;;;;;0.43;0.30;;;26.30;75.00;;;;;;6268026;22;20225;-80
2023/06/19 06:44:38;;;;;;;0.22;0.22;;;26.30;75.00;;;;;;6276038;22;20169;-79
2023/06/19 06:47:06;;;;;;;0.20;0.20;;;26.40;75.10;;;;;;6273138;22;20165;-80
2023/06/19 06:49:36;;;;;;;0.47;0.30;;;26.40;75.00;;;;;;6275809;22;20174;-80
2023/06/19 06:52:05;;;;;;;0.15;0.15;;;26.40;74.20;;;;;;6273752;22;20514;-81
2023/06/19 06:54:33;;;;;;;0.20;0.20;;;26.40;74.00;;;;;;6275350;22;20280;-80
2023/06/19 06:57:01;;;;;;;0.20;0.20;;;26.40;74.20;;;;;;6274131;22;20626;-80
2023/06/19 06:59:31;;;;;;;1.77;0.60;;;26.50;73.90;;;;;;6273963;22;20715;-80
2023/06/19 07:01:59;;;;;;;0.38;0.38;;;26.50;73.80;;;;;;6274872;22;20166;-79
2023/06/19 07:04:28;;;;;;;0.20;0.20;;;26.60;73.40;;;;;;6273844;22;20180;-80
2023/06/19 07:06:57;;;;;;;0.20;0.20;;;26.60;73.40;;;;;;6274078;22;20165;-81
2023/06/19 07:09:26;;;;;;;0.52;0.45;;;26.70;72.90;;;;;;6274773;22;20620;-81
2023/06/19 07:11:55;;;;;;;0.20;0.20;;;26.70;73.10;;;;;;6274734;22;20170;-80
2023/06/19 07:14:23;;;;;;;0.50;0.30;;;26.70;72.90;;;;;;6271177;22;20197;-79
2023/06/19 07:16:52;;;;;;;0.30;0.30;;;26.70;72.50;;;;;;6274797;22;20388;-81
2023/06/19 07:19:21;;;;;;;0.20;0.20;;;26.70;72.70;;;;;;6272788;22;20181;-81
2023/06/19 07:21:51;;;;;;;0.98;0.40;;;26.70;72.50;;;;;;6275656;22;20204;-80
2023/06/19 07:24:20;;;;;;;0.40;0.40;;;26.70;71.70;;;;;;6274500;22;20162;-80
2023/06/19 07:26:48;;;;;;;0.20;0.20;;;26.60;71.90;;;;;;6273373;22;20169;-81
2023/06/19 07:29:16;;;;;;;0.20;0.20;;;26.60;72.10;;;;;;6273522;22;20170;-81
2023/06/19 07:31:45;;;;;;;0.20;0.20;;;26.60;72.10;;;;;;6273948;22;20502;-81
2023/06/19 07:34:15;;;;;;;0.20;0.20;;;26.60;72.20;;;;;;6273886;22;20198;-81
2023/06/19 07:36:43;;;;;;;0.30;0.30;;;26.60;72.00;;;;;;6273790;22;20173;-79
2023/06/19 07:39:12;;;;;;;0.45;0.45;;;26.70;72.20;;;;;;6273524;22;20170;-80
2023/06/19 07:41:41;;;;;;;0.50;0.50;;;26.80;72.30;;;;;;6246715;22;20659;-80
2023/06/19 07:44:09;;;;;;;0.20;0.20;;;26.80;72.40;;;;;;6241709;22;20714;-81
2023/06/19 07:46:38;;;;;;;0.22;0.22;;;26.90;72.00;;;;;;6271814;22;20169;-79
2023/06/19 07:49:06;;;;;;;0.70;0.45;;;27.00;71.80;;;;;;6271844;22;20697;-80
2023/06/19 07:51:37;;;;;;;0.38;0.30;;;27.00;71.60;;;;;;6246879;22;20220;-80
2023/06/19 07:54:05;;;;;;;0.30;0.30;;;27.00;71.30;;;;;;6271101;22;20304;-79
2023/06/19 07:56:33;;;;;;;0.20;0.20;;;27.00;71.30;;;;;;6274662;22;20635;-79
2023/06/19 07:59:03;;;;;;;0.75;0.57;;;27.10;71.10;;;;;;6272599;22;20166;-79
2023/06/19 08:01:33;;;;;;;0.47;0.30;;;27.10;71.10;;;;;;6273387;22;20166;-78
2023/06/19 08:04:01;;;;;;;0.20;0.20;;;27.10;70.00;;;;;;6246511;22;20170;-78
2023/06/19 08:06:30;;;;;;;0.30;0.30;;;27.10;69.80;;;;;;6273318;22;20248;-78
2023/06/19 08:09:00;;;;;;;0.65;0.52;;;27.20;69.50;;;;;;6245607;22;20631;-80
2023/06/19 08:11:29;;;;;;;0.30;0.30;;;27.10;69.30;;;;;;6274203;22;20201;-79
2023/06/19 08:13:57;;;;;;;0.30;0.30;;;27.20;68.90;;;;;;6274162;22;20203;-80
2023/06/19 08:16:27;;;;;;;0.65;0.55;;;27.30;68.50;;;;;;6270685;22;20180;-79
2023/06/19 08:18:55;;;;;;;0.70;0.70;;;27.30;67.50;;;;;;6273465;22;20180;-81
2023/06/19 08:21:24;;;;;;;1.05;0.82;;;27.30;67.70;;;;;;6272163;22;20173;-79
2023/06/19 08:23:52;;;;;;;0.73;0.52;;;27.30;67.10;;;;;;6274288;22;20542;-81
2023/06/19 08:26:22;;;;;;;0.43;0.43;;;27.30;66.20;;;;;;6272956;22;20547;-78
2023/06/19 08:28:50;;;;;;;0.57;0.50;;;27.30;64.80;;;;;;6272720;22;20173;-80
2023/06/19 08:31:19;;;;;;;0.30;0.30;;;27.30;64.90;;;;;;6271775;22;20166;-80
2023/06/19 08:33:49;;;;;;;2.50;0.73;;;27.30;65.20;;;;;;6273044;22;20196;-79
2023/06/19 08:36:21;;;;;;;0.20;0.20;;;27.30;64.80;;;;;;6272235;22;20172;-80
2023/06/19 08:38:53;;;;;;;0.20;0.20;;;27.30;65.40;;;;;;6271632;22;20172;-80
2023/06/19 08:41:23;;;;;;;1.45;0.60;;;27.30;65.90;;;;;;6271027;22;20604;-79
2023/06/19 08:43:51;;;;;;;0.63;0.63;;;27.40;65.90;;;;;;6271178;22;20622;-80
2023/06/19 08:46:20;;;;;;;0.20;0.20;;;27.40;65.60;;;;;;6272373;22;20208;-79
2023/06/19 08:48:48;;;;;;;0.30;0.30;;;27.40;66.00;;;;;;6271271;22;20196;-79
2023/06/19 08:51:17;;;;;;;0.22;0.22;;;27.50;66.10;;;;;;6271806;22;20177;-79
2023/06/19 08:53:47;;;;;;;0.20;0.20;;;27.50;65.70;;;;;;6272027;22;20189;-81
2023/06/19 08:56:15;;;;;;;0.20;0.20;;;27.60;65.90;;;;;;6271755;22;20170;-80
2023/06/19 08:58:45;;;;;;;0.60;0.40;;;27.70;66.10;;;;;;6271023;22;20389;-80
2023/06/19 09:01:18;;;;;;;0.20;0.20;;;27.70;65.60;;;;;;6272116;22;20176;-81
2023/06/19 09:03:46;;;;;;;0.30;0.30;;;27.70;65.80;;;;;;6272749;22;20161;-80
2023/06/19 09:06:16;;;;;;;1.63;1.10;;;27.80;65.70;;;;;;6272191;22;20623;-80
2023/06/19 09:08:45;;;;;;;0.50;0.50;;;27.80;65.70;;;;;;6273083;22;20173;-80
2023/06/19 09:11:13;;;;;;;1.75;0.55;;;27.90;66.10;;;;;;6271883;22;20170;-80
2023/06/19 09:13:41;;;;;;;0.45;0.40;;;27.90;66.40;;;;;;6271405;22;20498;-80
2023/06/19 09:16:11;;;;;;;0.57;0.30;;;28.00;66.20;;;;;;6271278;22;20177;-80
2023/06/19 09:18:48;;;;;;;0.32;0.32;;;28.10;65.70;;;;;;6273408;22;20172;-80
2023/06/19 09:21:17;;;;;;;0.30;0.30;;;28.10;65.20;;;;;;6271738;22;20502;-80
2023/06/19 09:23:47;;;;;;;0.25;0.25;;;28.20;64.90;;;;;;6272719;22;20253;-80
2023/06/19 09:26:17;;;;;;;1.05;0.95;;;28.30;64.80;;;;;;6270276;22;20197;-80
2023/06/19 09:28:46;;;;;;;0.60;0.60;;;28.30;64.70;;;;;;6271962;22;20162;-80
2023/06/19 09:31:16;;;;;;;0.63;0.40;;;28.40;65.20;;;;;;6244466;22;20249;-80
2023/06/19 09:33:45;;;;;;;0.73;0.50;;;28.40;64.40;;;;;;6273618;22;20170;-80
2023/06/19 09:36:15;;;;;;;0.30;0.30;;;28.40;63.80;;;;;;6272040;22;20166;-81
2023/06/19 09:38:43;;;;;;;3.05;0.65;;;28.40;63.90;;;;;;6273101;22;20170;-82
2023/06/19 09:41:12;;;;;;;0.20;0.20;;;28.40;64.10;;;;;;6271684;22;20189;-80
2023/06/19 09:43:44;;;;;;;0.52;0.40;;;28.40;63.80;;;;;;6273992;22;20170;-82
2023/06/19 09:46:15;;;;;;;0.30;0.30;;;28.40;63.70;;;;;;6270817;22;20165;-79
2023/06/19 09:48:45;;;;;;;0.30;0.30;;;28.50;63.60;;;;;;6270749;22;20173;-80
2023/06/19 09:51:19;;;;;;;0.32;0.32;;;28.50;63.30;;;;;;6271381;22;20651;-80
2023/06/19 09:53:48;;;;;;;0.20;0.20;;;28.50;63.30;;;;;;6273328;22;20158;-79
2023/06/19 09:56:21;;;;;;;0.82;0.75;;;28.50;63.50;;;;;;6271308;22;20173;-80
2023/06/19 09:58:52;;;;;;;2.83;1.15;;;28.50;63.00;;;;;;6272902;22;20160;-81
2023/06/19 10:01:23;;;;;;;0.15;0.15;;;28.50;63.10;;;;;;6271399;22;20229;-81
2023/06/19 10:04:01;;;;;;;0.28;0.28;;;28.50;63.40;;;;;;6271963;22;20158;-81
2023/06/19 10:06:30;;;;;;;0.30;0.30;;;28.60;63.60;;;;;;6274623;22;20154;-81
2023/06/19 10:09:08;;;;;;;0.32;0.22;;;28.60;63.20;;;;;;6273966;22;20174;-80
2023/06/19 10:11:48;;;;;;;1.20;0.90;;;28.70;62.50;;;;;;6275354;22;20162;-81
2023/06/19 10:14:18;;;;;;;0.35;0.35;;;28.80;61.80;;;;;;6274358;22;20684;-80
2023/06/19 10:16:48;;;;;;;0.30;0.30;;;28.80;61.50;;;;;;6273504;22;20157;-80
2023/06/19 10:19:18;;;;;;;1.45;0.98;;;28.90;61.70;;;;;;6273043;22;20166;-82
2023/06/19 10:21:49;;;;;;;0.40;0.40;;;28.90;61.70;;;;;;6274652;22;20172;-82
2023/06/19 10:24:19;;;;;;;0.20;0.20;;;29.00;62.10;;;;;;6272770;22;20223;-80
2023/06/19 10:27:00;;;;;;;1.75;1.00;;;29.10;60.90;;;;;;6273283;22;20199;-82
2023/06/19 10:29:39;;;;;;;0.35;0.30;;;29.30;61.10;;;;;;6273980;22;20599;-81
2023/06/19 10:32:10;;;;;;;0.40;0.40;;;29.30;61.10;;;;;;6274015;22;20165;-81
2023/06/19 10:34:39;;;;;;;0.20;0.20;;;29.40;60.30;;;;;;6272382;22;20194;-80
2023/06/19 10:37:09;;;;;;;0.20;0.20;;;29.40;60.80;;;;;;6272389;22;20225;-81
2023/06/19 10:39:38;;;;;;;0.50;0.50;;;29.50;60.30;;;;;;6274918;22;20158;-81
2023/06/19 10:42:08;;;;;;;0.43;0.32;;;29.60;60.50;;;;;;6272480;22;20202;-81
2023/06/19 10:44:38;;;;;;;0.52;0.32;;;29.50;60.00;;;;;;6273389;22;20176;-81
2023/06/19 10:47:07;;;;;;;0.75;0.60;;;29.50;59.90;;;;;;6274848;22;20362;-81
2023/06/19 10:49:39;;;;;;;0.25;0.22;;;29.60;59.90;;;;;;6275462;22;20596;-81
2023/06/19 10:52:08;;;;;;;0.20;0.20;;;29.60;59.70;;;;;;6273397;22;20212;-82
2023/06/19 10:54:51;;;;;;;;;;;;;;;;;;;;;
2023/06/19 10:57:28;;;;;;;0.30;0.30;;;29.60;59.60;;;;;;6274919;22;20680;-82
2023/06/19 10:59:56;;;;;;;0.73;0.73;;;29.50;59.30;;;;;;6305964;22;20452;-81
2023/06/19 11:02:26;;;;;;;0.30;0.30;;;29.50;59.40;;;;;;6304059;22;20235;-82
2023/06/19 11:04:56;;;;;;;1.02;0.88;;;29.50;59.70;;;;;;6277840;22;20169;-81
2023/06/19 11:07:24;;;;;;;1.38;0.43;;;29.50;59.60;;;;;;6304153;22;20227;-80
2023/06/19 11:09:52;;;;;;;0.45;0.40;;;29.50;59.70;;;;;;6305253;22;20177;-81
2023/06/19 11:12:22;;;;;;;0.22;0.22;;;29.50;59.60;;;;;;6304006;22;20177;-80
2023/06/19 11:14:50;;;;;;;0.40;0.40;;;29.60;60.00;;;;;;6305368;22;20169;-80
2023/06/19 11:17:21;;;;;;;0.50;0.38;;;29.70;59.60;;;;;;6305028;22;20165;-82
2023/06/19 11:19:50;;;;;;;0.20;0.20;;;29.70;59.00;;;;;;6305044;22;20153;-81
2023/06/19 11:22:20;;;;;;;0.50;0.40;;;29.80;59.20;;;;;;6304146;22;20165;-80
2023/06/19 11:24:50;;;;;;;0.30;0.30;;;29.90;59.20;;;;;;6305251;22;20228;-81
2023/06/19 11:27:27;;;;;;;0.25;0.25;;;29.90;58.20;;;;;;6301955;22;20175;-82
2023/06/19 11:30:00;;;;;;;1.17;1.08;;;30.00;57.80;;;;;;6305470;22;20586;-81
2023/06/19 11:32:32;;;;;;;0.50;0.50;;;30.00;57.90;;;;;;6303864;22;20153;-81
2023/06/19 11:35:08;;;;;;;0.20;0.20;;;30.00;57.50;;;;;;6303619;22;20169;-80
2023/06/19 11:37:40;;;;;;;0.73;0.43;;;30.00;57.60;;;;;;6302295;22;20172;-80
2023/06/19 11:40:14;;;;;;;0.40;0.40;;;30.10;57.70;;;;;;6304597;22;20176;-81
2023/06/19 11:42:47;;;;;;;0.40;0.30;;;30.20;57.80;;;;;;6305806;22;20164;-80
2023/06/19 11:45:16;;;;;;;0.55;0.47;;;30.20;57.40;;;;;;6303826;22;20476;-80
2023/06/19 11:47:46;;;;;;;0.90;0.45;;;30.30;57.80;;;;;;6305409;22;20204;-82
2023/06/19 11:50:15;;;;;;;0.40;0.30;;;30.40;57.60;;;;;;6303398;22;20271;-80
2023/06/19 11:52:45;;;;;;;0.70;0.50;;;30.30;56.70;;;;;;6303784;22;20487;-81
2023/06/19 11:55:15;;;;;;;0.50;0.40;;;30.20;56.40;;;;;;6304614;22;20161;-80
2023/06/19 11:57:44;;;;;;;0.47;0.38;;;30.20;56.70;;;;;;6304273;22;20197;-81
2023/06/19 12:00:17;;;;;;;0.20;0.20;;;30.10;57.00;;;;;;6304965;22;20172;-80
2023/06/19 12:02:47;;;;;;;0.30;0.30;;;30.20;57.40;;;;;;6303779;22;20176;-81
2023/06/19 12:05:17;;;;;;;0.45;0.45;;;30.30;57.40;;;;;;6304700;22;20160;-80
2023/06/19 12:07:47;;;;;;;0.85;0.73;;;30.30;56.40;;;;;;6304635;22;20169;-82
2023/06/19 12:10:15;;;;;;;0.73;0.73;;;30.30;56.60;;;;;;6302271;22;20215;-80
2023/06/19 12:12:44;;;;;;;0.43;0.43;;;30.40;56.90;;;;;;6303888;22;20169;-81
2023/06/19 12:15:12;;;;;;;0.65;0.35;;;30.50;57.20;;;;;;6303553;22;20172;-79
2023/06/19 12:17:40;;;;;;;0.30;0.30;;;30.70;57.40;;;;;;6304687;22;20165;-81
2023/06/19 12:20:09;;;;;;;0.88;0.60;;;30.80;57.50;;;;;;6303742;22;20173;-81
2023/06/19 12:22:38;;;;;;;0.40;0.30;;;31.00;58.00;;;;;;6305209;22;20622;-80
2023/06/19 12:25:08;;;;;;;1.33;0.55;;;30.90;57.10;;;;;;6304206;22;20165;-81
2023/06/19 12:27:37;;;;;;;0.30;0.30;;;30.90;56.50;;;;;;6304341;22;20609;-81
2023/06/19 12:30:07;;;;;;;0.68;0.30;;;31.00;56.40;;;;;;6301614;22;20634;-82
2023/06/19 12:32:35;;;;;;;0.30;0.30;;;31.10;55.70;;;;;;6303538;22;20252;-80
2023/06/19 12:35:04;;;;;;;0.38;0.38;;;31.20;55.10;;;;;;6303007;22;20247;-82
2023/06/19 12:37:32;;;;;;;1.33;0.38;;;31.30;55.70;;;;;;6302450;22;20189;-84
2023/06/19 12:40:05;;;;;;;0.80;0.32;;;31.30;55.80;;;;;;6303406;22;20169;-83
2023/06/19 12:42:35;;;;;;;0.47;0.47;;;31.20;56.20;;;;;;6302981;22;20871;-82
2023/06/19 12:45:04;;;;;;;0.45;0.40;;;31.10;56.30;;;;;;6303664;22;20158;-81
2023/06/19 12:47:33;;;;;;;0.80;0.63;;;30.90;56.90;;;;;;6304084;22;20188;-81
2023/06/19 12:50:02;;;;;;;0.63;0.63;;;30.80;57.40;;;;;;6304237;22;20173;-79
2023/06/19 12:52:31;;;;;;;4.22;0.52;;;30.70;58.10;;;;;;6303976;22;20246;-80
2023/06/19 12:55:01;;;;;;;0.85;0.45;;;30.50;59.30;;;;;;6302727;22;20180;-79
2023/06/19 12:57:29;;;;;;;0.85;0.52;;;30.30;60.20;;;;;;6277893;22;20279;-80
2023/06/19 12:59:59;;;;;;;0.52;0.52;;;30.10;61.00;;;;;;6304961;22;20165;-78